METAR Data
IDs: Format: Raw Decoded Include TAF

Data at: 0116 UTC 16 Jan 2019

METAR for:PAOU (Nelson Lagoon Arpt, AK, US)
Text:PAOU 160056Z AUTO 09005KT 5SM BR BKN050 03/02 A2948 RMK AO2 SLP984 T00330022
Temperature: 3.3°C ( 38°F)
Dewpoint: 2.2°C ( 36°F) [RH = 92%]
Pressure (altimeter):29.48 inches Hg ( 998.4 mb) [Sea level pressure: 998.4 mb]
Winds:from the E (90 degrees) at 6 MPH (5 knots; 2.6 m/s)
Visibility: 5 sm ( 8 km)
Ceiling:5000 feet AGL
Clouds: broken clouds at 5000 feet AGL
Weather:BR (mist)
QC Flag:automated observation with no human augmentation
Text:PAOU 152356Z AUTO 07007KT 10SM FEW029 SCT041 OVC050 03/02 A2948 RMK AO2 RAB36E48 SLP983 P0000 60000 T00280022 10028 20011 58005
Temperature: 2.8°C ( 37°F)
Dewpoint: 2.2°C ( 36°F) [RH = 96%]
Pressure (altimeter):29.48 inches Hg ( 998.4 mb) [Sea level pressure: 998.3 mb]
Winds:from the ENE (70 degrees) at 8 MPH (7 knots; 3.6 m/s)
Visibility:10 or more sm (16+ km)
Ceiling:5000 feet AGL
Clouds: few clouds at 2900 feet AGL, scattered clouds at 4100 feet AGL, overcast cloud deck at 5000 feet AGL
QC Flag:automated observation with no human augmentation
Text:PAOU 152314Z AUTO 04009KT 10SM FEW018 SCT049 BKN055 02/02 A2948 RMK AO2 FZRANO
Temperature: 2.0°C ( 36°F)
Dewpoint: 2.0°C ( 36°F) [RH = 100%]
Pressure (altimeter):29.48 inches Hg ( 998.4 mb)
Winds:from the NE (40 degrees) at 10 MPH (9 knots; 4.6 m/s)
Visibility:10 or more sm (16+ km)
Ceiling:5500 feet AGL
Clouds: few clouds at 1800 feet AGL, scattered clouds at 4900 feet AGL, broken clouds at 5500 feet AGL
QC Flag:automated observation with no human augmentation
Text:PAOU 152256Z AUTO 03006KT 8SM BKN018 BKN026 OVC036 02/01 A2949 RMK AO2 RAB24E33UPB33E42 SLP985 P0000 T00220011 FZRANO
Temperature: 2.2°C ( 36°F)
Dewpoint: 1.1°C ( 34°F) [RH = 92%]
Pressure (altimeter):29.49 inches Hg ( 998.7 mb) [Sea level pressure: 998.5 mb]
Winds:from the NNE (30 degrees) at 7 MPH (6 knots; 3.1 m/s)
Visibility: 8 sm ( 13 km)
Ceiling:1800 feet AGL
Clouds: broken clouds at 1800 feet AGL, broken clouds at 2600 feet AGL, overcast cloud deck at 3600 feet AGL
QC Flag:automated observation with no human augmentation
Text:PAOU 152156Z AUTO 24004KT 6SM BR OVC026 02/01 A2949 RMK AO2 SLP987 T00170011 FZRANO
Temperature: 1.7°C ( 35°F)
Dewpoint: 1.1°C ( 34°F) [RH = 96%]
Pressure (altimeter):29.49 inches Hg ( 998.7 mb) [Sea level pressure: 998.7 mb]
Winds:from the WSW (240 degrees) at 5 MPH (4 knots; 2.1 m/s)
Visibility: 6 sm ( 10 km)
Ceiling:2600 feet AGL
Clouds: overcast cloud deck at 2600 feet AGL
Weather:BR (mist)
QC Flag:automated observation with no human augmentation
Text:PAOU 152131Z AUTO 28004KT 7SM BKN027 OVC036 02/01 A2949 RMK AO2 FZRANO
Temperature: 2.0°C ( 36°F)
Dewpoint: 1.0°C ( 34°F) [RH = 93%]
Pressure (altimeter):29.49 inches Hg ( 998.7 mb)
Winds:from the W (280 degrees) at 5 MPH (4 knots; 2.1 m/s)
Visibility: 7 sm ( 11 km)
Ceiling:2700 feet AGL
Clouds: broken clouds at 2700 feet AGL, overcast cloud deck at 3600 feet AGL
QC Flag:automated observation with no human augmentation
Text:PAOU 152115Z AUTO 28003KT 3SM BR SCT029 OVC036 02/01 A2949 RMK AO2 FZRANO
Temperature: 2.0°C ( 36°F)
Dewpoint: 1.0°C ( 34°F) [RH = 93%]
Pressure (altimeter):29.49 inches Hg ( 998.7 mb)
Winds:from the W (280 degrees) at 3 MPH (3 knots; 1.5 m/s)
Visibility: 3 sm ( 5 km)
Ceiling:3600 feet AGL
Clouds: scattered clouds at 2900 feet AGL, overcast cloud deck at 3600 feet AGL
Weather:BR (mist)
QC Flag:automated observation with no human augmentation
Text:PAOU 152108Z AUTO 00000KT 2 1/2SM BR FEW023 BKN029 OVC037 02/01 A2949 RMK AO2 VIS 1 1/4V5 FZRANO
Temperature: 2.0°C ( 36°F)
Dewpoint: 1.0°C ( 34°F) [RH = 93%]
Pressure (altimeter):29.49 inches Hg ( 998.7 mb)
Winds:calm
Visibility: 2.50 sm ( 4.02 km)
Ceiling:2900 feet AGL
Clouds: few clouds at 2300 feet AGL, broken clouds at 2900 feet AGL, overcast cloud deck at 3700 feet AGL
Weather:BR (mist)
QC Flag:automated observation with no human augmentation
Text:PAOU 152056Z AUTO 26003KT 5SM BR FEW023 BKN032 OVC042 02/01 A2949 RMK AO2 RAB13E25UPB25E45 SLP988 P0000 60000 T00170011 51003 FZRANO
Temperature: 1.7°C ( 35°F)
Dewpoint: 1.1°C ( 34°F) [RH = 96%]
Pressure (altimeter):29.49 inches Hg ( 998.7 mb) [Sea level pressure: 998.8 mb]
Winds:from the W (260 degrees) at 3 MPH (3 knots; 1.5 m/s)
Visibility: 5 sm ( 8 km)
Ceiling:3200 feet AGL
Clouds: few clouds at 2300 feet AGL, broken clouds at 3200 feet AGL, overcast cloud deck at 4200 feet AGL
Weather:BR (mist)
QC Flag:automated observation with no human augmentation
Text:PAOU 152014Z AUTO 00000KT 7SM -RA BKN028 BKN033 OVC043 02/01 A2950 RMK AO2 RAB13 P0000 FZRANO
Temperature: 2.0°C ( 36°F)
Dewpoint: 1.0°C ( 34°F) [RH = 93%]
Pressure (altimeter):29.50 inches Hg ( 999.1 mb)
Winds:calm
Visibility: 7 sm ( 11 km)
Ceiling:2800 feet AGL
Clouds: broken clouds at 2800 feet AGL, broken clouds at 3300 feet AGL, overcast cloud deck at 4300 feet AGL
Weather:-RA (light rain)
QC Flag:automated observation with no human augmentation
Text:PAOU 151956Z AUTO 01003KT 9SM FEW016 SCT032 OVC044 02/01 A2950 RMK AO2 SLP988 T00170011 FZRANO
Temperature: 1.7°C ( 35°F)
Dewpoint: 1.1°C ( 34°F) [RH = 96%]
Pressure (altimeter):29.50 inches Hg ( 999.1 mb) [Sea level pressure: 998.8 mb]
Winds:from the N (10 degrees) at 3 MPH (3 knots; 1.5 m/s)
Visibility: 9 sm ( 14 km)
Ceiling:4400 feet AGL
Clouds: few clouds at 1600 feet AGL, scattered clouds at 3200 feet AGL, overcast cloud deck at 4400 feet AGL
QC Flag:automated observation with no human augmentation
Text:PAOU 151948Z AUTO 02004KT 9SM SCT016 BKN034 OVC048 02/01 A2950 RMK AO2 FZRANO
Temperature: 2.0°C ( 36°F)
Dewpoint: 1.0°C ( 34°F) [RH = 93%]
Pressure (altimeter):29.50 inches Hg ( 999.1 mb)
Winds:from the NNE (20 degrees) at 5 MPH (4 knots; 2.1 m/s)
Visibility: 9 sm ( 14 km)
Ceiling:3400 feet AGL
Clouds: scattered clouds at 1600 feet AGL, broken clouds at 3400 feet AGL, overcast cloud deck at 4800 feet AGL
QC Flag:automated observation with no human augmentation
Text:PAOU 151919Z AUTO 06005KT 8SM OVC016 01/01 A2950 RMK AO2 FZRANO
Temperature: 1.0°C ( 34°F)
Dewpoint: 1.0°C ( 34°F) [RH = 100%]
Pressure (altimeter):29.50 inches Hg ( 999.1 mb)
Winds:from the ENE (60 degrees) at 6 MPH (5 knots; 2.6 m/s)
Visibility: 8 sm ( 13 km)
Ceiling:1600 feet AGL
Clouds: overcast cloud deck at 1600 feet AGL
QC Flag:automated observation with no human augmentation

TAF for:PAOU (Nelson Lagoon Arpt, AK, US)
Text:No data found